Time;durP1;ratioP1;P1;durP2;ratioP2;P2;SDS_P1;SDS_P2;PMS_P1;PMS_P2;Temp;Humidity;BMP_temperature;BMP_pressure;BME280_temperature;BME280_humidity;BME280_pressure;Samples;Min_cycle;Max_cycle;Signal;HPM_P1;HPM_P2
2021/11/21 00:01:09;;;;;;;0.00;0.00;;;;;;;5.93;67.93;98464.43;103811;1355;137686;-84
2021/11/21 00:03:34;;;;;;;0.00;0.00;;;;;;;5.90;67.85;98455.55;103589;1355;22521;-84
2021/11/21 00:06:00;;;;;;;0.00;0.00;;;;;;;5.93;67.99;98456.46;103944;1355;138156;-84
2021/11/21 00:08:26;;;;;;;0.00;0.00;;;;;;;5.96;68.17;98459.98;103738;1355;139179;-84
2021/11/21 00:10:51;;;;;;;0.00;0.00;;;;;;;6.00;68.46;98459.09;103861;1355;138243;-84
2021/11/21 00:13:17;;;;;;;0.00;0.00;;;;;;;6.02;68.31;98453.64;103833;1354;137845;-84
2021/11/21 00:15:43;;;;;;;0.00;0.00;;;;;;;6.06;68.30;98449.12;104002;1354;22445;-84
2021/11/21 00:18:10;;;;;;;0.00;0.00;;;;;;;6.09;68.46;98451.92;103837;1354;138719;-84
2021/11/21 00:20:36;;;;;;;0.00;0.00;;;;;;;6.11;68.71;98454.13;103729;1355;137690;-84
2021/11/21 00:23:03;;;;;;;0.10;0.10;;;;;;;6.10;68.58;98451.88;103826;1354;137805;-84
2021/11/21 00:25:29;;;;;;;0.00;0.00;;;;;;;6.09;68.32;98446.32;103692;1355;137750;-84
2021/11/21 00:27:54;;;;;;;0.10;0.10;;;;;;;6.09;68.21;98447.02;103854;1355;137915;-85
2021/11/21 00:30:20;;;;;;;0.00;0.00;;;;;;;6.08;68.33;98447.92;103922;1354;22454;-85
2021/11/21 00:32:46;;;;;;;0.00;0.00;;;;;;;6.07;68.21;98439.81;103807;1355;137506;-85
2021/11/21 00:35:12;;;;;;;0.00;0.00;;;;;;;6.04;68.80;98431.55;103939;1355;137581;-85
2021/11/21 00:37:37;;;;;;;0.00;0.00;;;;;;;6.00;68.81;98437.08;103724;1357;137615;-85
2021/11/21 00:40:05;;;;;;;0.00;0.00;;;;;;;5.96;69.07;98434.48;103791;1358;137403;-84
2021/11/21 00:42:31;;;;;;;0.00;0.00;;;;;;;5.91;68.87;98434.77;103960;1355;22411;-84
2021/11/21 00:44:56;;;;;;;0.00;0.00;;;;;;;5.89;68.66;98429.58;103815;1355;137718;-84
2021/11/21 00:47:22;;;;;;;0.00;0.00;;;;;;;5.91;68.77;98434.54;103561;1355;138507;-84
2021/11/21 00:49:47;;;;;;;0.00;0.00;;;;;;;5.95;68.91;98428.08;103763;1355;138861;-84
2021/11/21 00:52:13;;;;;;;0.00;0.00;;;;;;;6.00;69.16;98430.29;103939;1354;138410;-84
2021/11/21 00:57:07;;;;;;;0.00;0.00;;;;;;;6.11;69.12;98425.55;103841;1348;137478;-84
2021/11/21 00:59:33;;;;;;;0.00;0.00;;;;;;;6.14;69.05;98422.17;103865;1354;137573;-84
2021/11/21 01:02:01;;;;;;;0.00;0.00;;;;;;;6.16;68.97;98423.39;103761;1355;138111;-85
2021/11/21 01:04:27;;;;;;;0.00;0.00;;;;;;;6.15;69.01;98421.30;103835;1357;137795;-84
2021/11/21 01:06:53;;;;;;;0.00;0.00;;;;;;;6.15;69.01;98421.14;103730;1355;137664;-84
2021/11/21 01:09:23;;;;;;;0.00;0.00;;;;;;;6.13;69.26;98417.80;103926;1355;137379;-84
2021/11/21 01:11:49;;;;;;;0.00;0.00;;;;;;;6.10;69.36;98415.09;103868;1356;137337;-84
2021/11/21 01:14:14;;;;;;;0.10;0.10;;;;;;;6.08;69.43;98415.54;103740;1356;137654;-84
2021/11/21 01:16:40;;;;;;;0.10;0.10;;;;;;;6.04;69.05;98417.01;103909;1355;137518;-84
2021/11/21 01:19:05;;;;;;;0.00;0.00;;;;;;;5.99;68.83;98409.55;103761;1355;137995;-84
2021/11/21 01:21:31;;;;;;;0.00;0.00;;;;;;;5.93;68.94;98410.88;103965;1355;22308;-84
2021/11/21 01:23:57;;;;;;;0.00;0.00;;;;;;;5.87;69.09;98407.73;103934;1355;137258;-84
2021/11/21 01:26:22;;;;;;;0.00;0.00;;;;;;;5.84;68.93;98407.80;103811;1356;137877;-84
2021/11/21 01:28:48;;;;;;;0.00;0.00;;;;;;;5.84;69.11;98401.13;103809;1357;138204;-84
2021/11/21 01:31:13;;;;;;;0.00;0.00;;;;;;;5.86;69.60;98398.28;103799;1355;139878;-84
2021/11/21 01:33:39;;;;;;;0.00;0.00;;;;;;;5.89;70.09;98399.77;103935;1357;22542;-84
2021/11/21 01:36:06;;;;;;;0.00;0.00;;;;;;;5.91;70.30;98398.20;103914;1355;138088;-84
2021/11/21 01:38:31;;;;;;;0.00;0.00;;;;;;;5.94;70.06;98391.64;103724;1357;138212;-84
2021/11/21 01:40:58;;;;;;;0.00;0.00;;;;;;;5.94;70.01;98389.67;103842;1355;138341;-84
2021/11/21 01:43:24;;;;;;;0.10;0.10;;;;;;;5.94;69.83;98386.83;103666;1357;137665;-85
2021/11/21 01:45:50;;;;;;;0.00;0.00;;;;;;;5.92;69.82;98387.73;103769;1356;137959;-85
2021/11/21 01:48:16;;;;;;;0.10;0.10;;;;;;;5.91;69.83;98385.00;103868;1355;22583;-85
2021/11/21 01:50:43;;;;;;;0.00;0.00;;;;;;;5.88;69.93;98380.04;103671;1357;137658;-85
2021/11/21 01:53:09;;;;;;;0.00;0.00;;;;;;;5.86;69.94;98379.52;103770;1355;138329;-85
2021/11/21 01:55:36;;;;;;;0.00;0.00;;;;;;;5.84;70.10;98371.04;103757;1355;137689;-85
2021/11/21 01:58:02;;;;;;;0.00;0.00;;;;;;;5.82;70.30;98373.20;103856;1355;138277;-85
2021/11/21 02:00:31;;;;;;;0.00;0.00;;;;;;;5.79;70.26;98374.45;103877;1355;22331;-85
2021/11/21 02:02:56;;;;;;;0.10;0.10;;;;;;;5.78;70.22;98365.06;103635;1355;138114;-85
2021/11/21 02:05:22;;;;;;;0.10;0.10;;;;;;;5.80;70.20;98367.02;103735;1358;138165;-85
2021/11/21 02:07:48;;;;;;;0.00;0.00;;;;;;;5.83;70.62;98362.50;103681;1355;138251;-85
2021/11/21 02:10:18;;;;;;;0.10;0.10;;;;;;;5.88;70.54;98357.44;103811;1355;136875;-84
2021/11/21 02:12:44;;;;;;;0.00;0.00;;;;;;;5.93;70.64;98351.07;103910;1355;22345;-84
2021/11/21 02:15:16;;;;;;;0.00;0.00;;;;;;;5.96;70.47;98342.64;103700;1355;137304;-85
2021/11/21 02:17:42;;;;;;;0.00;0.00;;;;;;;5.99;70.36;98341.09;103749;1355;138202;-85
2021/11/21 02:20:11;;;;;;;0.10;0.10;;;;;;;5.99;70.47;98333.21;103801;1355;137610;-84
2021/11/21 02:22:41;;;;;;;0.00;0.00;;;;;;;5.99;70.25;98335.80;103737;1355;137727;-84
2021/11/21 02:25:08;;;;;;;0.10;0.10;;;;;;;5.98;70.13;98329.83;103546;1357;138283;-84
2021/11/21 02:27:34;;;;;;;0.00;0.00;;;;;;;5.96;70.34;98324.96;103946;1356;22457;-84
2021/11/21 02:30:00;;;;;;;0.00;0.00;;;;;;;5.93;70.29;98323.21;103634;1357;137331;-84
2021/11/21 02:32:26;;;;;;;0.00;0.00;;;;;;;5.89;70.31;98320.83;103045;1357;722169;-84
2021/11/21 02:34:53;;;;;;;0.00;0.00;;;;;;;5.84;70.31;98319.73;103741;1357;137517;-85
2021/11/21 02:37:19;;;;;;;0.00;0.00;;;;;;;5.80;70.34;98313.52;103537;1356;137532;-85
2021/11/21 02:39:45;;;;;;;0.00;0.00;;;;;;;5.76;70.25;98313.39;103971;1357;22492;-85
2021/11/21 02:42:28;;;;;;;0.00;0.00;;;;;;;5.74;70.22;98306.88;103733;1355;137669;-83
2021/11/21 02:44:54;;;;;;;0.00;0.00;;;;;;;5.74;70.35;98307.32;103806;1355;138150;-83
2021/11/21 02:47:20;;;;;;;0.10;0.10;;;;;;;5.74;70.54;98297.37;103805;1356;138389;-83
2021/11/21 02:49:45;;;;;;;0.00;0.00;;;;;;;5.77;70.74;98297.41;103712;1356;139062;-84
2021/11/21 02:52:11;;;;;;;0.00;0.00;;;;;;;5.80;70.93;98294.02;103904;1355;138384;-83
2021/11/21 02:54:37;;;;;;;0.00;0.00;;;;;;;5.82;70.98;98288.61;103910;1355;23085;-83
2021/11/21 02:57:02;;;;;;;0.00;0.00;;;;;;;5.84;70.82;98288.58;103716;1357;137603;-83
2021/11/21 02:59:29;;;;;;;0.10;0.10;;;;;;;5.84;70.89;98284.19;103905;1355;136412;-83
2021/11/21 03:01:55;;;;;;;0.00;0.00;;;;;;;5.85;70.82;98285.73;103712;1355;137652;-83
2021/11/21 03:04:23;;;;;;;0.00;0.00;;;;;;;5.85;71.09;98283.85;103848;1355;137782;-83
2021/11/21 03:06:50;;;;;;;0.00;0.00;;;;;;;5.86;71.02;98288.25;103968;1355;22409;-82
2021/11/21 03:09:22;;;;;;;0.00;0.00;;;;;;;5.84;70.76;98289.53;103917;1355;138261;-83
2021/11/21 03:11:53;;;;;;;0.00;0.00;;;;;;;5.82;70.68;98279.20;103203;1356;137975;-83
2021/11/21 03:14:19;;;;;;;0.00;0.00;;;;;;;5.78;70.66;98276.93;103689;1357;137605;-84
2021/11/21 03:16:47;;;;;;;0.00;0.00;;;;;;;5.74;70.54;98276.44;103807;1357;138032;-84
2021/11/21 03:19:13;;;;;;;0.00;0.00;;;;;;;5.69;70.84;98277.96;103689;1355;137592;-85
2021/11/21 03:21:38;;;;;;;0.00;0.00;;;;;;;5.65;70.78;98270.25;103963;1356;23234;-85
2021/11/21 03:24:04;;;;;;;0.00;0.00;;;;;;;5.63;70.61;98267.92;103832;1355;137755;-85
2021/11/21 03:26:30;;;;;;;0.10;0.10;;;;;;;5.64;70.93;98267.27;103798;1354;138588;-86
2021/11/21 03:28:55;;;;;;;0.00;0.00;;;;;;;5.66;71.03;98268.38;103905;1354;138760;-85
2021/11/21 03:31:21;;;;;;;0.00;0.00;;;;;;;5.69;71.38;98265.94;103790;1354;139158;-84
2021/11/21 03:33:46;;;;;;;0.00;0.00;;;;;;;5.72;71.38;98267.10;104048;1354;22410;-84
2021/11/21 03:36:12;;;;;;;0.00;0.00;;;;;;;5.74;71.25;98260.98;103840;1354;137544;-84
2021/11/21 03:38:38;;;;;;;0.00;0.00;;;;;;;5.76;71.42;98260.55;103801;1354;138294;-84
2021/11/21 03:41:04;;;;;;;0.00;0.00;;;;;;;5.77;71.22;98257.97;103818;1354;138042;-83
2021/11/21 03:43:30;;;;;;;0.00;0.00;;;;;;;5.76;71.32;98258.30;103761;1354;137747;-83
2021/11/21 03:45:55;;;;;;;0.00;0.00;;;;;;;5.75;71.18;98251.27;103819;1354;137708;-83
2021/11/21 03:48:21;;;;;;;0.00;0.00;;;;;;;5.73;71.24;98240.86;103921;1354;22464;-84
2021/11/21 03:50:46;;;;;;;0.00;0.00;;;;;;;5.70;71.32;98240.40;103808;1354;137474;-85
2021/11/21 03:53:12;;;;;;;0.00;0.00;;;;;;;5.67;71.36;98235.84;103934;1354;137318;-85
2021/11/21 03:55:37;;;;;;;0.00;0.00;;;;;;;5.63;71.23;98234.10;103800;1354;137581;-85
2021/11/21 03:58:03;;;;;;;0.00;0.00;;;;;;;5.60;71.23;98231.14;103903;1354;137640;-84
2021/11/21 04:00:29;;;;;;;0.00;0.00;;;;;;;5.59;71.37;98228.91;104002;1354;22601;-84
2021/11/21 04:02:56;;;;;;;0.00;0.00;;;;;;;5.60;71.39;98229.75;103389;1353;139228;-84
2021/11/21 04:05:22;;;;;;;0.00;0.00;;;;;;;5.63;71.52;98223.23;103849;1355;138362;-84
2021/11/21 04:07:47;;;;;;;0.00;0.00;;;;;;;5.65;71.63;98222.23;103836;1355;138949;-84
2021/11/21 04:10:14;;;;;;;0.00;0.00;;;;;;;5.67;71.57;98214.73;103910;1353;136579;-84
2021/11/21 04:12:40;;;;;;;0.00;0.00;;;;;;;5.68;71.63;98215.47;103857;1353;22334;-84
2021/11/21 04:15:07;;;;;;;0.00;0.00;;;;;;;5.69;71.51;98215.77;103798;1354;137523;-84
2021/11/21 04:17:33;;;;;;;0.00;0.00;;;;;;;5.68;71.48;98217.39;103939;1354;137444;-84
2021/11/21 04:19:59;;;;;;;0.00;0.00;;;;;;;5.66;71.27;98218.47;103657;1354;137751;-84
2021/11/21 04:22:25;;;;;;;0.00;0.00;;;;;;;5.63;71.42;98212.84;103847;1354;137921;-83
2021/11/21 04:24:50;;;;;;;0.00;0.00;;;;;;;5.59;71.44;98210.58;103866;1354;137394;-84
2021/11/21 04:27:16;;;;;;;0.00;0.00;;;;;;;5.55;71.42;98206.98;103907;1355;137434;-84
2021/11/21 04:29:42;;;;;;;0.10;0.10;;;;;;;5.51;71.41;98207.61;103774;1355;137357;-84
2021/11/21 04:32:07;;;;;;;0.00;0.00;;;;;;;5.47;71.42;98208.76;103846;1353;137429;-83
2021/11/21 04:34:33;;;;;;;0.00;0.00;;;;;;;5.45;71.50;98202.04;103888;1355;137949;-84
2021/11/21 04:36:59;;;;;;;0.10;0.10;;;;;;;5.46;71.68;98204.21;103970;1353;139864;-84
2021/11/21 04:39:28;;;;;;;0.00;0.00;;;;;;;5.47;71.83;98201.82;103962;1355;137979;-84
2021/11/21 04:41:54;;;;;;;0.00;0.00;;;;;;;5.49;71.80;98200.94;103759;1355;137568;-84
2021/11/21 04:44:21;;;;;;;0.00;0.00;;;;;;;5.51;71.63;98196.19;103841;1355;138282;-84
2021/11/21 04:46:47;;;;;;;0.00;0.00;;;;;;;5.52;71.37;98195.85;103894;1355;137530;-84
2021/11/21 04:49:12;;;;;;;0.00;0.00;;;;;;;5.51;71.50;98194.52;103850;1353;138285;-84
2021/11/21 04:51:38;;;;;;;0.10;0.10;;;;;;;5.50;71.45;98189.08;104058;1354;23064;-83
2021/11/21 04:54:09;;;;;;;0.00;0.00;;;;;;;5.49;71.50;98184.77;103945;1355;137550;-84
2021/11/21 04:56:35;;;;;;;;;;;;;;;5.47;71.49;98185.59;103833;1355;137525;-85
2021/11/21 04:59:00;;;;;;;0.00;0.00;;;;;;;5.42;71.52;98183.33;103951;1354;124321;-84
2021/11/21 05:01:26;;;;;;;0.00;0.00;;;;;;;5.39;71.56;98178.70;103844;1354;137759;-84
2021/11/21 05:03:51;;;;;;;0.00;0.00;;;;;;;5.36;71.40;98173.29;103846;1353;137617;-84
2021/11/21 05:06:17;;;;;;;0.00;0.00;;;;;;;5.33;71.60;98173.31;104062;1355;23228;-84
2021/11/21 05:08:42;;;;;;;0.00;0.00;;;;;;;5.29;71.77;98173.65;103846;1354;137579;-84
2021/11/21 05:11:08;;;;;;;0.00;0.00;;;;;;;5.25;71.72;98171.30;103937;1355;137721;-83
2021/11/21 05:13:33;;;;;;;0.00;0.00;;;;;;;5.24;71.91;98170.34;103857;1354;138383;-83
2021/11/21 05:15:58;;;;;;;0.00;0.00;;;;;;;5.27;71.92;98165.73;103864;1354;138483;-83
2021/11/21 05:18:24;;;;;;;0.10;0.10;;;;;;;5.31;72.14;98161.30;103960;1353;22319;-84
2021/11/21 05:20:49;;;;;;;0.10;0.10;;;;;;;5.35;72.07;98161.59;103767;1354;138345;-84
2021/11/21 05:23:15;;;;;;;0.00;0.00;;;;;;;5.40;72.24;98157.61;103935;1354;137546;-84
2021/11/21 05:25:40;;;;;;;0.00;0.00;;;;;;;5.43;72.10;98157.73;103807;1354;138276;-84
2021/11/21 05:28:06;;;;;;;0.00;0.00;;;;;;;5.45;72.03;98154.95;103919;1354;137749;-83
2021/11/21 05:30:31;;;;;;;0.00;0.00;;;;;;;5.45;71.83;98149.86;104006;1354;22411;-84
2021/11/21 05:32:57;;;;;;;0.00;0.00;;;;;;;5.45;71.90;98145.33;103795;1354;137742;-84
2021/11/21 05:35:22;;;;;;;0.00;0.00;;;;;;;5.44;71.74;98141.98;103923;1354;137326;-84
2021/11/21 05:37:49;;;;;;;0.00;0.00;;;;;;;5.40;71.79;98139.71;103209;1354;137921;-84
2021/11/21 05:40:17;;;;;;;0.00;0.00;;;;;;;5.37;71.77;98134.46;103911;1352;137975;-83
2021/11/21 05:42:42;;;;;;;0.00;0.00;;;;;;;5.33;72.01;98132.25;103993;1354;22313;-84
2021/11/21 05:45:08;;;;;;;0.00;0.00;;;;;;;5.30;71.79;98131.85;103745;1354;137183;-84
2021/11/21 05:47:34;;;;;;;0.10;0.10;;;;;;;5.24;71.82;98131.95;103855;1354;137573;-84
2021/11/21 05:50:00;;;;;;;0.00;0.00;;;;;;;5.19;71.64;98134.19;103707;1354;137612;-84
2021/11/21 05:52:26;;;;;;;0.00;0.00;;;;;;;5.17;71.62;98135.80;103895;1352;138082;-84
2021/11/21 05:54:51;;;;;;;0.10;0.10;;;;;;;5.17;71.78;98140.92;103873;1354;138123;-84
2021/11/21 05:57:18;;;;;;;0.00;0.00;;;;;;;5.21;71.90;98142.45;103938;1354;138961;-84
2021/11/21 05:59:44;;;;;;;0.00;0.00;;;;;;;5.25;72.05;98144.40;103943;1354;137915;-84
2021/11/21 06:02:10;;;;;;;0.00;0.00;;;;;;;5.29;72.27;98147.77;103856;1352;137826;-83
2021/11/21 06:04:35;;;;;;;0.00;0.00;;;;;;;5.33;72.31;98150.13;103906;1351;137745;-83
2021/11/21 06:07:01;;;;;;;0.00;0.00;;;;;;;5.35;72.25;98144.14;103912;1354;137644;-84
2021/11/21 06:09:27;;;;;;;0.10;0.10;;;;;;;5.36;72.05;98145.15;103944;1352;137212;-84
2021/11/21 06:11:54;;;;;;;0.00;0.00;;;;;;;5.36;72.03;98143.02;103888;1354;137368;-84
2021/11/21 06:14:20;;;;;;;0.00;0.00;;;;;;;5.35;71.86;98139.13;103732;1354;137421;-84
2021/11/21 06:16:46;;;;;;;0.00;0.00;;;;;;;5.32;71.85;98138.66;103854;1354;137805;-84
2021/11/21 06:19:11;;;;;;;0.00;0.00;;;;;;;5.30;71.92;98143.52;103778;1354;138517;-84
2021/11/21 06:21:37;;;;;;;0.00;0.00;;;;;;;5.28;72.05;98142.23;103917;1354;23076;-84
2021/11/21 06:24:03;;;;;;;0.00;0.00;;;;;;;5.24;71.99;98139.86;103816;1354;137449;-83
2021/11/21 06:26:29;;;;;;;0.00;0.00;;;;;;;5.20;72.04;98135.40;103798;1354;138513;-83
2021/11/21 06:28:56;;;;;;;0.00;0.00;;;;;;;5.17;72.09;98138.95;103879;1352;137825;-83
2021/11/21 06:31:22;;;;;;;0.00;0.00;;;;;;;5.16;71.94;98141.36;103809;1354;139087;-83
2021/11/21 06:33:47;;;;;;;0.00;0.00;;;;;;;5.20;72.20;98143.10;103971;1354;22467;-83
2021/11/21 06:36:13;;;;;;;0.10;0.10;;;;;;;5.25;72.29;98137.40;103905;1354;138702;-83
2021/11/21 06:38:40;;;;;;;0.00;0.00;;;;;;;5.31;72.48;98136.73;103838;1354;138002;-84
2021/11/21 06:41:06;;;;;;;0.10;0.10;;;;;;;5.37;72.39;98136.16;103911;1354;137737;-84
2021/11/21 06:43:32;;;;;;;0.00;0.00;;;;;;;5.43;72.29;98139.36;103732;1354;138643;-83
2021/11/21 06:45:57;;;;;;;0.10;0.10;;;;;;;5.48;72.45;98138.09;103911;1354;138370;-83
2021/11/21 06:48:23;;;;;;;0.00;0.00;;;;;;;5.52;72.29;98131.48;104041;1354;23329;-83
2021/11/21 06:50:51;;;;;;;0.00;0.00;;;;;;;5.57;72.27;98129.73;103794;1354;137569;-84
2021/11/21 06:53:17;;;;;;;0.10;0.10;;;;;;;5.60;72.45;98136.96;103870;1354;137979;-83
2021/11/21 06:55:43;;;;;;;0.10;0.10;;;;;;;5.63;72.47;98136.30;103794;1354;138138;-84
2021/11/21 06:58:09;;;;;;;0.00;0.00;;;;;;;5.66;72.52;98130.02;103917;1351;139373;-83
2021/11/21 07:00:35;;;;;;;0.00;0.00;;;;;;;5.67;72.43;98130.86;103914;1354;22439;-84
2021/11/21 07:03:01;;;;;;;0.00;0.00;;;;;;;5.69;72.67;98133.08;103808;1354;137464;-82
2021/11/21 07:05:26;;;;;;;0.10;0.10;;;;;;;5.71;72.76;98130.99;103817;1354;137648;-81
2021/11/21 07:07:52;;;;;;;0.00;0.00;;;;;;;5.75;72.61;98132.80;103708;1356;137754;-84
2021/11/21 07:10:18;;;;;;;0.00;0.00;;;;;;;5.82;72.62;98132.36;103774;1354;138690;-84
2021/11/21 07:12:43;;;;;;;0.00;0.00;;;;;;;5.92;72.82;98133.61;104020;1354;22310;-83
2021/11/21 07:15:10;;;;;;;0.00;0.00;;;;;;;6.03;72.83;98132.48;103653;1354;137996;-83
2021/11/21 07:17:35;;;;;;;0.10;0.10;;;;;;;6.14;73.00;98133.11;103877;1354;137973;-84
2021/11/21 07:20:02;;;;;;;0.00;0.00;;;;;;;6.26;72.90;98133.16;103760;1354;137877;-84
2021/11/21 07:22:28;;;;;;;0.00;0.00;;;;;;;6.36;73.21;98127.47;103790;1354;138300;-83
2021/11/21 07:24:53;;;;;;;0.00;0.00;;;;;;;6.47;73.14;98122.26;103936;1354;137757;-84
2021/11/21 07:27:19;;;;;;;0.10;0.10;;;;;;;6.57;73.15;98122.55;103882;1348;137479;-84
2021/11/21 07:29:44;;;;;;;0.00;0.00;;;;;;;6.66;73.12;98119.95;103810;1354;137616;-84
2021/11/21 07:32:11;;;;;;;0.00;0.00;;;;;;;6.74;73.14;98123.05;103761;1354;137973;-84
2021/11/21 07:34:37;;;;;;;0.10;0.10;;;;;;;6.81;72.98;98119.09;103873;1354;137734;-84
2021/11/21 07:37:02;;;;;;;0.10;0.10;;;;;;;6.88;73.07;98118.77;103777;1354;137814;-85
2021/11/21 07:39:28;;;;;;;0.10;0.10;;;;;;;6.96;72.81;98121.33;103915;1352;137350;-85
2021/11/21 07:41:55;;;;;;;0.10;0.10;;;;;;;7.08;72.91;98117.23;103744;1354;138718;-84
2021/11/21 07:44:21;;;;;;;0.00;0.00;;;;;;;7.23;73.24;98118.55;103585;1356;150426;-84
2021/11/21 07:46:46;;;;;;;0.10;0.10;;;;;;;7.38;73.37;98124.77;103713;1354;138054;-84
2021/11/21 07:49:12;;;;;;;0.10;0.10;;;;;;;7.53;72.96;98116.15;103736;1354;138524;-84
2021/11/21 07:51:37;;;;;;;0.10;0.10;;;;;;;7.68;73.19;98115.34;104003;1354;22423;-84
2021/11/21 07:54:03;;;;;;;0.00;0.00;;;;;;;7.83;72.96;98118.13;103839;1354;137419;-84
2021/11/21 07:56:29;;;;;;;0.10;0.10;;;;;;;7.96;72.76;98121.78;103716;1355;138709;-86
2021/11/21 07:58:54;;;;;;;0.00;0.00;;;;;;;8.07;72.62;98117.98;103807;1354;138500;-84
2021/11/21 08:01:20;;;;;;;0.00;0.00;;;;;;;8.19;72.35;98110.86;103793;1354;139434;-84
2021/11/21 08:03:45;;;;;;;0.10;0.10;;;;;;;8.29;72.54;98109.36;103997;1354;22562;-84
2021/11/21 08:06:11;;;;;;;0.10;0.10;;;;;;;8.39;72.40;98101.79;103896;1354;137373;-84
2021/11/21 08:08:39;;;;;;;0.10;0.10;;;;;;;8.50;72.36;98101.83;103376;1354;137748;-84
2021/11/21 08:11:05;;;;;;;0.10;0.10;;;;;;;8.61;72.04;98097.66;103880;1354;137683;-84
2021/11/21 08:13:31;;;;;;;0.10;0.10;;;;;;;8.72;71.62;98098.80;103779;1357;138233;-84
2021/11/21 08:15:57;;;;;;;0.10;0.10;;;;;;;8.79;71.78;98098.10;103900;1354;138598;-84
2021/11/21 08:18:24;;;;;;;0.10;0.10;;;;;;;8.91;71.45;98095.03;103991;1354;22448;-84
2021/11/21 08:20:50;;;;;;;0.10;0.10;;;;;;;9.04;71.47;98096.32;103654;1354;138063;-84
2021/11/21 08:23:16;;;;;;;0.10;0.10;;;;;;;9.23;71.39;98096.73;103667;1354;137868;-84
2021/11/21 08:25:44;;;;;;;0.10;0.10;;;;;;;9.40;71.00;98094.75;103857;1354;137931;-83
2021/11/21 08:28:09;;;;;;;0.10;0.10;;;;;;;9.58;70.44;98091.44;103920;1355;138426;-84
2021/11/21 08:30:38;;;;;;;0.10;0.10;;;;;;;9.73;70.09;98092.81;104057;1354;22419;-84
2021/11/21 08:33:06;;;;;;;0.10;0.10;;;;;;;9.86;69.88;98091.22;103834;1354;137579;-84
2021/11/21 08:35:32;;;;;;;0.10;0.10;;;;;;;10.02;69.49;98092.05;103964;1354;137776;-83
2021/11/21 08:37:58;;;;;;;0.10;0.10;;;;;;;10.14;69.22;98092.38;103768;1355;138483;-84
2021/11/21 08:40:24;;;;;;;0.10;0.10;;;;;;;10.28;68.59;98088.92;103882;1355;138178;-84
2021/11/21 08:42:49;;;;;;;0.10;0.10;;;;;;;10.37;68.16;98085.86;104052;1355;22430;-84
2021/11/21 08:45:15;;;;;;;0.10;0.10;;;;;;;10.44;67.79;98083.92;103835;1354;138165;-84
2021/11/21 08:47:41;;;;;;;0.10;0.10;;;;;;;10.54;67.55;98087.95;103925;1355;138100;-83
2021/11/21 08:50:09;;;;;;;0.10;0.10;;;;;;;10.64;66.90;98085.27;103798;1354;137779;-84
2021/11/21 08:52:36;;;;;;;0.10;0.10;;;;;;;10.70;66.62;98082.76;103834;1354;138243;-85
2021/11/21 08:55:02;;;;;;;0.10;0.10;;;;;;;10.78;66.71;98077.88;103920;1354;138203;-84
2021/11/21 08:57:28;;;;;;;0.10;0.10;;;;;;;10.93;66.80;98079.23;103814;1354;138905;-85
2021/11/21 08:59:54;;;;;;;0.10;0.10;;;;;;;11.10;66.34;98074.17;103738;1354;137705;-83
2021/11/21 09:02:19;;;;;;;0.10;0.10;;;;;;;11.26;65.84;98071.41;103741;1354;138480;-82
2021/11/21 09:04:45;;;;;;;0.10;0.10;;;;;;;11.38;64.36;98069.98;103956;1353;138098;-82
2021/11/21 09:07:10;;;;;;;0.20;0.20;;;;;;;11.52;64.53;98064.61;103820;1351;138069;-86
2021/11/21 09:09:36;;;;;;;0.20;0.20;;;;;;;11.64;64.58;98063.73;103980;1354;22626;-84
2021/11/21 09:12:02;;;;;;;0.20;0.20;;;;;;;11.81;64.21;98058.61;103914;1347;137526;-83
2021/11/21 09:14:28;;;;;;;0.20;0.20;;;;;;;11.91;63.53;98057.75;103766;1354;138041;-84
2021/11/21 09:16:54;;;;;;;0.20;0.20;;;;;;;12.03;63.26;98051.88;103848;1354;137934;-84
2021/11/21 09:19:20;;;;;;;0.20;0.20;;;;;;;12.17;62.68;98051.48;103714;1354;138005;-84
2021/11/21 09:21:45;;;;;;;0.20;0.20;;;;;;;12.29;62.14;98054.42;103940;1354;23190;-84
2021/11/21 09:24:11;;;;;;;0.20;0.20;;;;;;;12.39;61.88;98044.15;103721;1357;137872;-84
2021/11/21 09:26:37;;;;;;;0.20;0.20;;;;;;;12.51;61.42;98043.91;103708;1355;137777;-84
2021/11/21 09:29:03;;;;;;;0.20;0.20;;;;;;;12.62;60.89;98043.31;103873;1355;137778;-84
2021/11/21 09:31:28;;;;;;;0.20;0.20;;;;;;;12.71;60.41;98041.46;103642;1357;138124;-83
2021/11/21 09:33:54;;;;;;;0.20;0.20;;;;;;;12.79;60.08;98041.67;103841;1354;137910;-83
2021/11/21 09:36:20;;;;;;;0.10;0.10;;;;;;;12.90;59.93;98044.62;103975;1354;23276;-83
2021/11/21 09:38:45;;;;;;;0.10;0.10;;;;;;;12.98;59.37;98042.20;103779;1354;137742;-84
2021/11/21 09:41:12;;;;;;;0.10;0.10;;;;;;;12.99;59.20;98034.81;103841;1354;137820;-84
2021/11/21 09:43:37;;;;;;;0.10;0.10;;;;;;;12.96;59.26;98033.88;103712;1354;138296;-84
2021/11/21 09:46:03;;;;;;;0.20;0.20;;;;;;;12.98;59.10;98033.08;103725;1354;138615;-85
2021/11/21 09:48:33;;;;;;;0.20;0.20;;;;;;;13.03;59.12;98021.35;103946;1354;22453;-85
2021/11/21 09:50:59;;;;;;;0.10;0.10;;;;;;;13.12;58.50;98021.99;103807;1354;138300;-83
2021/11/21 09:53:25;;;;;;;0.20;0.20;;;;;;;13.19;58.14;98017.75;103790;1354;137913;-84
2021/11/21 09:55:51;;;;;;;0.20;0.20;;;;;;;13.28;57.75;98011.41;103759;1354;137828;-84
2021/11/21 09:58:16;;;;;;;0.20;0.20;;;;;;;13.37;57.40;98007.85;103830;1354;138455;-84
2021/11/21 10:00:42;;;;;;;0.20;0.20;;;;;;;13.45;56.99;98002.09;103993;1354;22462;-83
2021/11/21 10:03:10;;;;;;;0.20;0.20;;;;;;;13.49;56.36;97994.81;103653;1357;137853;-84
2021/11/21 10:05:39;;;;;;;0.20;0.20;;;;;;;13.60;56.40;97999.87;103733;1351;138136;-83
2021/11/21 10:08:08;;;;;;;0.30;0.30;;;;;;;13.67;56.53;97999.70;103644;1355;138392;-84
2021/11/21 10:10:59;;;;;;;0.20;0.20;;;;;;;13.72;56.29;97997.79;103866;1355;137941;-84
2021/11/21 10:13:36;;;;;;;0.20;0.20;;;;;;;13.77;55.86;97994.84;103721;1355;138103;-82
2021/11/21 10:16:33;;;;;;;0.20;0.20;;;;;;;13.76;55.20;97989.86;103881;1355;138118;-83
2021/11/21 10:18:59;;;;;;;0.20;0.20;;;;;;;13.75;55.03;97981.71;103787;1355;138235;-82
2021/11/21 10:21:50;;;;;;;0.30;0.30;;;;;;;13.79;55.03;97980.27;103830;1355;137918;-83
2021/11/21 10:24:30;;;;;;;0.20;0.20;;;;;;;13.81;54.75;97973.48;103807;1351;22365;-82
2021/11/21 10:27:19;;;;;;;0.20;0.20;;;;;;;13.89;54.73;97971.61;103672;1356;137625;-82
2021/11/21 10:29:47;;;;;;;0.30;0.30;;;;;;;13.98;54.54;97976.47;103858;1351;137105;-81
2021/11/21 10:32:14;;;;;;;0.30;0.30;;;;;;;14.05;54.40;97972.18;103525;1351;380373;-83
2021/11/21 10:34:51;;;;;;;0.30;0.30;;;;;;;14.17;53.85;97975.08;103889;1351;138164;-83
2021/11/21 10:37:18;;;;;;;0.30;0.30;;;;;;;14.35;53.61;97969.01;103853;1350;138379;-83
2021/11/21 10:39:46;;;;;;;0.20;0.20;;;;;;;14.45;53.39;97969.94;104025;1351;22560;-84
2021/11/21 10:42:13;;;;;;;0.20;0.20;;;;;;;14.48;52.59;97968.25;103926;1349;137528;-83
2021/11/21 10:44:49;;;;;;;0.20;0.20;;;;;;;14.54;52.73;97964.00;103407;1353;138291;-84
2021/11/21 10:47:15;;;;;;;0.20;0.20;;;;;;;14.61;51.86;97964.20;103948;1348;138663;-85
2021/11/21 10:49:41;;;;;;;0.30;0.30;;;;;;;14.68;51.98;97953.09;103734;1351;137981;-85
2021/11/21 10:52:12;;;;;;;0.20;0.20;;;;;;;14.79;51.91;97950.68;103885;1351;137808;-83
2021/11/21 10:54:47;;;;;;;0.20;0.20;;;;;;;14.84;50.80;97947.69;104054;1350;22403;-82
2021/11/21 10:57:27;;;;;;;0.30;0.30;;;;;;;14.93;51.37;97951.98;103843;1351;137907;-83
2021/11/21 11:00:04;;;;;;;0.20;0.20;;;;;;;14.95;50.55;97943.59;103917;1351;137799;-83
2021/11/21 11:02:40;;;;;;;0.20;0.20;;;;;;;15.00;50.74;97937.11;103788;1351;138028;-83
2021/11/21 11:05:07;;;;;;;0.30;0.30;;;;;;;15.05;50.72;97928.55;103944;1349;137664;-82
2021/11/21 11:07:37;;;;;;;0.30;0.30;;;;;;;15.09;50.62;97925.11;103865;1351;138277;-84
2021/11/21 11:10:07;;;;;;;0.30;0.30;;;;;;;15.10;49.37;97924.58;103958;1351;137834;-83
2021/11/21 11:12:33;;;;;;;0.20;0.20;;;;;;;15.10;50.30;97927.69;104020;1351;22372;-83
2021/11/21 11:14:58;;;;;;;0.40;0.40;;;;;;;15.04;50.14;97919.63;103279;1354;138074;-83
2021/11/21 11:17:26;;;;;;;0.30;0.30;;;;;;;14.99;50.02;97913.63;103923;1350;137061;-82
2021/11/21 11:19:57;;;;;;;0.20;0.20;;;;;;;15.07;50.09;97905.77;103850;1349;137883;-83
2021/11/21 11:22:23;;;;;;;0.40;0.40;;;;;;;15.19;49.59;97903.66;103977;1351;138421;-82
2021/11/21 11:24:49;;;;;;;0.30;0.30;;;;;;;15.25;49.72;97902.25;104064;1351;22455;-83